kb1kvs Beverly MA US current weather conditions

sailwx.info

Wind from 225 at 14 knots gusting 19

Air temperature 31.7° C
Dewpoint 21.8° C

Last reported at 2020-Aug-11 19:05 UTC.
Time now 2020-Aug-11 19:51 UTC

Location: N 42°32' W 070°53'.
View on Google Maps.

See reports from other nearby stations

  
Tides and Currents Weather Stations Pressure Air Temp Water Temp Dewpoint Dewpoint Depression Visibility Wind Speed Wind Dir Waves Ship Positions
date/time (UTC)wind fromknots sea level pressurealtimeterstation pressurevisibilityair tempwater tempwave heightnotes
2020-Aug-11 19:05 225 14 gusting 19 31.7
2020-Aug-11 18:55 225 13 gusting 19 32.2
2020-Aug-11 18:45 225 13 gusting 18 32.2
2020-Aug-11 18:35 225 12 gusting 16 31.7
2020-Aug-11 18:25 248 10 gusting 17 31.1
2020-Aug-11 18:15 225 13 gusting 19 31.1
2020-Aug-11 18:05 225 12 gusting 18 31.7
2020-Aug-11 17:55 225 4 gusting 11 30.0
2020-Aug-11 17:45 113 3 gusting 6 28.3
2020-Aug-11 17:35 113 3 gusting 6 27.8
2020-Aug-11 17:25 090 4 gusting 6 26.7
2020-Aug-11 17:15 135 4 gusting 8 27.2
2020-Aug-11 17:05 135 3 gusting 6 30.6
2020-Aug-11 16:55 248 2 gusting 7 32.2
2020-Aug-11 16:45 225 4 gusting 9 30.6
2020-Aug-11 16:35 135 2 gusting 6 30.0
2020-Aug-11 16:25 113 2 gusting 6 28.9
2020-Aug-11 16:15 135 2 gusting 4 29.4
2020-Aug-11 16:05 068 4 gusting 8 30.0
2020-Aug-11 15:55 225 3 gusting 8 31.1
2020-Aug-11 15:45 225 2 gusting 6 30.6
2020-Aug-11 15:35 225 6 gusting 11 30.6
2020-Aug-11 15:25 225 6 gusting 10 30.6
2020-Aug-11 15:15 225 6 gusting 12 30.6
2020-Aug-11 15:05 225 4 gusting 10 30.0
2020-Aug-11 14:55 135 2 gusting 6 29.4
2020-Aug-11 14:45 158 1 gusting 4 28.9
2020-Aug-11 14:35 135 2 gusting 4 28.3
2020-Aug-11 14:25 135 2 gusting 4 27.8
2020-Aug-11 14:15 113 3 gusting 5 27.2
2020-Aug-11 14:05 135 2 gusting 4 27.2
2020-Aug-11 13:55 135 2 gusting 4 26.7
2020-Aug-11 13:45 135 2 gusting 5 26.1
2020-Aug-11 13:35 113 3 gusting 4 26.1
2020-Aug-11 13:25 135 2 gusting 4 26.1
2020-Aug-11 13:15 113 2 gusting 4 26.1
2020-Aug-11 13:05 135 1 gusting 3 26.7
2020-Aug-11 12:55 135 2 gusting 4 26.1
2020-Aug-11 12:45 135 1 gusting 3 26.1
2020-Aug-11 12:35 135 2 gusting 3 26.1
2020-Aug-11 12:25 135 1 gusting 3 26.7
2020-Aug-11 12:15 135 2 gusting 3 26.1
2020-Aug-11 12:05 135 1 gusting 3 27.2
2020-Aug-11 11:55 248 1 gusting 2 27.2
2020-Aug-11 11:45 135 1 gusting 3 27.2
2020-Aug-11 11:35 270 2 gusting 5 27.2
2020-Aug-11 11:25 293 1 gusting 3 27.2
2020-Aug-11 11:15 293 0 gusting 3 26.7
2020-Aug-11 11:05 045 0 gusting 1 26.1
2020-Aug-11 10:55 045 0 gusting 1 25.6
2020-Aug-11 10:45 135 0 gusting 1 25.0
2020-Aug-11 10:35 270 0 gusting 1 24.4
2020-Aug-11 10:25 24.4
2020-Aug-11 10:15 045 0 gusting 0 24.4
2020-Aug-11 10:05 225 0 gusting 1 23.9
2020-Aug-11 09:55 23.9
2020-Aug-11 09:45 315 0 gusting 2 23.9
2020-Aug-11 09:35 315 0 gusting 3 24.4
2020-Aug-11 09:25 023 0 gusting 1 24.4
2020-Aug-11 09:15 293 0 gusting 2 24.4
2020-Aug-11 09:05 248 0 gusting 2 24.4
2020-Aug-11 08:55 270 0 gusting 1 24.4
2020-Aug-11 08:45 24.4
2020-Aug-11 08:35 270 0 gusting 2 25.0
2020-Aug-11 08:25 270 0 gusting 1 25.0
2020-Aug-11 08:15 315 0 gusting 2 25.0
2020-Aug-11 08:05 315 1 gusting 4 25.0
2020-Aug-11 07:55 338 0 gusting 2 25.0
2020-Aug-11 07:45 045 0 gusting 1 25.6
2020-Aug-11 07:35 293 0 gusting 2 25.6
2020-Aug-11 07:25 338 0 gusting 3 25.6
2020-Aug-11 07:15 293 0 gusting 1 25.6
2020-Aug-11 07:05 248 1 gusting 2 25.6
2020-Aug-11 06:55 293 0 gusting 2 26.1
2020-Aug-11 06:45 293 1 gusting 3 26.1
2020-Aug-11 06:35 315 1 gusting 5 26.1
2020-Aug-11 06:25 315 1 gusting 6 26.1
2020-Aug-11 06:15 315 1 gusting 3 26.1
2020-Aug-11 06:05 338 1 gusting 4 26.7
2020-Aug-11 05:55 315 1 gusting 3 26.7
2020-Aug-11 05:45 315 2 gusting 4 26.7
2020-Aug-11 05:35 315 1 gusting 5 26.7
2020-Aug-11 05:25 27.2
2020-Aug-11 05:15 27.2
2020-Aug-11 05:05 338 1 gusting 3 27.2
2020-Aug-11 04:55 315 1 gusting 4 27.2
2020-Aug-11 04:45 338 0 gusting 3 27.2
2020-Aug-11 04:35 315 0 gusting 2 27.2
2020-Aug-11 04:25 338 1 gusting 4 27.2
2020-Aug-11 04:15 338 1 gusting 3 27.2
2020-Aug-11 04:05 338 1 gusting 3 27.2
2020-Aug-11 03:55 315 1 gusting 3 27.2
2020-Aug-11 03:45 315 1 gusting 5 27.8
2020-Aug-11 03:35 315 2 gusting 6 27.8
2020-Aug-11 03:25 315 2 gusting 5 27.8
2020-Aug-11 03:15 315 2 gusting 5 27.8
2020-Aug-11 03:05 315 3 gusting 6 27.8
2020-Aug-11 02:55 293 2 gusting 6 28.3
2020-Aug-11 02:45 315 2 gusting 5 28.3
2020-Aug-11 02:35 315 3 gusting 8 28.3
2020-Aug-11 02:25 270 2 gusting 6 28.3
2020-Aug-11 02:15 315 2 gusting 6 28.3
2020-Aug-11 02:05 315 3 gusting 8 28.3
2020-Aug-11 01:55 315 2 gusting 6 28.3
2020-Aug-11 01:45 315 1 gusting 5 27.8
2020-Aug-11 01:35 248 3 gusting 7 27.8
2020-Aug-11 01:25 270 3 gusting 7 27.2
2020-Aug-11 01:15 270 5 gusting 9 26.7
2020-Aug-11 01:05 248 5 gusting 9 25.6
2020-Aug-11 00:55 135 1 gusting 3 25.0
2020-Aug-11 00:45 113 1 gusting 3 25.0
2020-Aug-11 00:35 135 2 gusting 3 25.0
2020-Aug-11 00:25 113 1 gusting 4 24.4
2020-Aug-11 00:15 135 2 gusting 4 23.9
2020-Aug-11 00:05 135 4 gusting 5 23.9
2020-Aug-10 23:55 135 4 gusting 5 23.9
2020-Aug-10 23:45 135 4 gusting 5 24.4
2020-Aug-10 23:35 135 4 gusting 5 24.4
2020-Aug-10 23:25 158 2 gusting 4 25.0
2020-Aug-10 23:15 135 3 gusting 5 25.0
2020-Aug-10 23:05 113 4 gusting 6 24.4
2020-Aug-10 22:55 135 4 gusting 6 25.0
2020-Aug-10 22:45 135 5 gusting 6 25.0
2020-Aug-10 22:35 135 4 gusting 6 25.0
2020-Aug-10 22:25 135 4 gusting 5 25.0
2020-Aug-10 22:15 135 4 gusting 6 24.4
2020-Aug-10 22:05 135 4 gusting 6 24.4
2020-Aug-10 21:55 135 4 gusting 6 24.4
2020-Aug-10 21:45 113 3 gusting 6 23.9
2020-Aug-10 21:35 135 5 gusting 7 23.9
2020-Aug-10 21:25 135 5 gusting 7 23.9
2020-Aug-10 21:15 135 5 gusting 8 24.4
2020-Aug-10 21:05 113 5 gusting 6 25.0
2020-Aug-10 20:55 113 5 gusting 6 24.4
2020-Aug-10 20:45 135 5 gusting 6 24.4
2020-Aug-10 20:35 135 5 gusting 8 24.4
2020-Aug-10 20:25 135 4 gusting 6 25.0
2020-Aug-10 20:15 135 4 gusting 6 25.0
2020-Aug-10 20:05 135 5 gusting 6 24.4
2020-Aug-10 19:55 135 6 gusting 6 23.9
2020-Aug-10 19:45 135 6 gusting 8 23.9
2020-Aug-10 19:35 135 5 gusting 7 23.9
2020-Aug-10 19:25 135 5 gusting 6 23.9
2020-Aug-10 19:15 135 5 gusting 7 23.9
2020-Aug-10 19:05 135 7 gusting 10 23.9
2020-Aug-10 18:55 135 5 gusting 8 23.3
2020-Aug-10 18:45 158 9 gusting 11 23.3
2020-Aug-10 18:35 113 5 gusting 7 22.8
2020-Aug-10 18:25 158 6 gusting 9 22.8
2020-Aug-10 18:15 135 6 gusting 9 23.3
2020-Aug-10 18:05 158 8 gusting 11 23.3
2020-Aug-10 17:55 135 3 gusting 7 24.4
2020-Aug-10 17:45 135 6 gusting 11 24.4
2020-Aug-10 17:35 113 5 gusting 10 25.6
2020-Aug-10 17:25 113 5 gusting 13 26.1
2020-Aug-10 17:15 068 5 gusting 9 25.6
2020-Aug-10 17:05 113 3 gusting 6 24.4
2020-Aug-10 16:55 158 5 gusting 8 24.4
2020-Aug-10 16:45 113 4 gusting 7 25.0
2020-Aug-10 16:35 158 7 gusting 12 25.0
2020-Aug-10 16:25 135 4 gusting 6 26.7
2020-Aug-10 16:15 135 2 gusting 6 31.1
2020-Aug-10 16:05 158 2 gusting 6 30.6
2020-Aug-10 15:55 158 2 gusting 6 31.1
2020-Aug-10 15:45 068 2 gusting 6 31.1
2020-Aug-10 15:35 158 4 gusting 7 31.1
2020-Aug-10 15:25 270 3 gusting 9 32.8
2020-Aug-10 15:15 315 2 gusting 5 32.8
2020-Aug-10 15:05 338 2 gusting 6 32.8
2020-Aug-10 14:55 248 3 gusting 6 32.2
2020-Aug-10 14:45 293 4 gusting 7 32.2
2020-Aug-10 14:35 293 2 gusting 5 32.2
2020-Aug-10 14:25 293 3 gusting 8 31.7
2020-Aug-10 14:15 31.1
2020-Aug-10 14:05 315 4 gusting 7 31.1
2020-Aug-10 13:55 31.1
2020-Aug-10 13:45 315 3 gusting 7 31.1
2020-Aug-10 13:35 293 3 gusting 6 30.6
2020-Aug-10 13:25 315 2 gusting 6 30.0
2020-Aug-10 13:15 338 1 gusting 5 30.0
2020-Aug-10 13:05 023 1 gusting 4 29.4
2020-Aug-10 12:55 28.9
2020-Aug-10 12:45 315 2 gusting 5 28.3
2020-Aug-10 12:35 315 3 gusting 6 27.8
2020-Aug-10 12:25 315 2 gusting 5 26.7
2020-Aug-10 12:15 315 6 gusting 10 26.1
2020-Aug-10 12:05 315 2 gusting 6 26.1
2020-Aug-10 11:55 315 2 gusting 5 25.6
2020-Aug-10 11:45 315 2 gusting 6 25.0
2020-Aug-10 11:35 315 4 gusting 6 24.4
2020-Aug-10 11:25 315 4 gusting 7 24.4
2020-Aug-10 11:15 315 2 gusting 5 23.9
2020-Aug-10 11:05 315 2 gusting 5 23.9
2020-Aug-10 10:55 315 2 gusting 3 23.3
2020-Aug-10 10:45 293 1 gusting 4 23.3
2020-Aug-10 10:35 293 1 gusting 3 23.3
2020-Aug-10 10:25 315 1 gusting 4 23.3
2020-Aug-10 10:15 315 1 gusting 4 23.3
2020-Aug-10 10:05 315 1 gusting 3 23.3
2020-Aug-10 09:55 315 0 gusting 3 23.3
2020-Aug-10 09:45 270 1 gusting 2 23.3
2020-Aug-10 09:35 315 0 gusting 1 23.3
2020-Aug-10 09:25 23.3
2020-Aug-10 09:15 293 1 gusting 3 23.3
2020-Aug-10 09:05 293 1 gusting 3 23.3
2020-Aug-10 08:55 23.3
2020-Aug-10 08:45 23.3
2020-Aug-10 08:35 270 0 gusting 2 23.3
2020-Aug-10 08:25 315 0 gusting 2 23.3
2020-Aug-10 08:15 338 0 gusting 2 23.3
2020-Aug-10 08:05 315 2 gusting 6 23.3
2020-Aug-10 07:55 338 3 gusting 6 23.9
2020-Aug-10 07:45 315 3 gusting 6 23.9
2020-Aug-10 07:35 315 1 gusting 4 23.9
2020-Aug-10 07:25 315 1 gusting 4 23.9
2020-Aug-10 07:15 315 2 gusting 6 23.9
2020-Aug-10 07:05 315 2 gusting 6 23.9
2020-Aug-10 06:55 338 1 gusting 5 23.9
2020-Aug-10 06:45 315 2 gusting 5 23.9
2020-Aug-10 06:35 315 2 gusting 5 23.9
2020-Aug-10 06:25 338 1 gusting 4 23.9
2020-Aug-10 06:15 315 2 gusting 5 24.4
2020-Aug-10 06:05 315 1 gusting 5 24.4
2020-Aug-10 05:55 315 2 gusting 5 24.4
2020-Aug-10 05:45 315 2 gusting 4 24.4
2020-Aug-10 05:35 315 2 gusting 6 24.4
2020-Aug-10 05:25 315 2 gusting 6 24.4
2020-Aug-10 05:15 315 1 gusting 5 24.4
2020-Aug-10 05:05 315 2 gusting 7 24.4
2020-Aug-10 04:55 315 1 gusting 5 24.4
2020-Aug-10 04:45 315 2 gusting 6 24.4
2020-Aug-10 04:35 315 2 gusting 5 24.4
2020-Aug-10 04:25 270 2 gusting 6 24.4
2020-Aug-10 04:15 270 2 gusting 6 24.4
2020-Aug-10 04:05 248 2 gusting 6 24.4
2020-Aug-10 03:55 270 2 gusting 5 24.4
2020-Aug-10 03:45 270 4 gusting 7 24.4
2020-Aug-10 03:35 270 5 gusting 8 24.4
2020-Aug-10 03:25 270 6 gusting 11 24.4
2020-Aug-10 03:15 270 8 gusting 13 24.4
2020-Aug-10 03:05 270 8 gusting 15 24.4
2020-Aug-10 02:55 270 8 gusting 13 24.4
2020-Aug-10 02:45 270 6 gusting 11 25.0
2020-Aug-10 02:35 270 7 gusting 12 25.0
2020-Aug-10 02:25 270 7 gusting 14 25.0
2020-Aug-10 02:15 270 6 gusting 13 25.0
2020-Aug-10 02:05 270 7 gusting 13 25.0
2020-Aug-10 01:55 248 6 gusting 12 25.0
2020-Aug-10 01:45 248 8 gusting 12 25.0
2020-Aug-10 01:35 248 7 gusting 13 25.0
2020-Aug-10 01:25 270 7 gusting 12 25.6
2020-Aug-10 01:15 270 7 gusting 12 25.6
2020-Aug-10 01:05 248 7 gusting 16 25.6
2020-Aug-10 00:55 270 7 gusting 13 25.6
2020-Aug-10 00:45 248 8 gusting 13 25.6
2020-Aug-10 00:35 248 8 gusting 13 25.6
2020-Aug-10 00:25 248 8 gusting 13 25.6
2020-Aug-10 00:15 248 11 gusting 17 25.6
2020-Aug-10 00:05 248 11 gusting 16 26.1
2020-Aug-09 23:55 248 9 gusting 13 26.1
2020-Aug-09 23:45 248 9 gusting 15 26.1
2020-Aug-09 23:35 225 9 gusting 13 26.1
2020-Aug-09 23:25 248 10 gusting 14 26.7
2020-Aug-09 23:15 248 10 gusting 14 26.7
2020-Aug-09 23:05 270 8 gusting 16 26.7
2020-Aug-09 22:55 248 8 gusting 12 27.2
2020-Aug-09 22:45 248 9 gusting 15 27.2
2020-Aug-09 22:35 248 8 gusting 13 27.2
2020-Aug-09 22:25 248 6 gusting 12 27.2
2020-Aug-09 22:15 248 6 gusting 13 27.2
2020-Aug-09 22:05 248 9 gusting 14 27.2
2020-Aug-09 21:55 248 10 gusting 15 27.8
2020-Aug-09 21:45 248 8 gusting 13 27.8
2020-Aug-09 21:35 225 6 gusting 13 27.8
2020-Aug-09 21:25 225 5 gusting 11 27.8
2020-Aug-09 21:15 225 4 gusting 13 27.2
2020-Aug-09 21:05 225 4 gusting 12 26.7
2020-Aug-09 20:55 225 5 gusting 9 26.7
2020-Aug-09 20:45 225 1 gusting 3 25.0
2020-Aug-09 20:35 113 4 gusting 6 24.4
2020-Aug-09 20:25 135 3 gusting 8 25.0
2020-Aug-09 20:15 113 4 gusting 6 26.1
2020-Aug-09 20:05 113 2 gusting 6 27.2
2020-Aug-09 19:55 090 2 gusting 5 26.7
2020-Aug-09 19:45 113 3 gusting 7 27.2
2020-Aug-09 19:35 113 3 gusting 5 27.8
2020-Aug-09 19:25 090 2 gusting 5 27.8
2020-Aug-09 19:15 135 3 gusting 7 27.8
2020-Aug-09 19:05 158 3 gusting 9 27.2